createdAt,value
2019-04-28T00:01:52.300Z,97771.57
2019-04-28T00:04:21.514Z,97770.80
2019-04-28T00:06:51.552Z,97762.59
2019-04-28T00:09:23.042Z,97760.13
2019-04-28T00:11:52.072Z,97766.18
2019-04-28T00:14:21.913Z,97766.95
2019-04-28T00:16:51.364Z,97780.30
2019-04-28T00:19:22.119Z,97778.79
2019-04-28T00:22:11.030Z,97774.25
2019-04-28T00:24:51.430Z,97784.34
2019-04-28T00:27:21.650Z,97787.58
2019-04-28T00:29:51.828Z,97790.64
2019-04-28T00:32:21.082Z,97783.05
2019-04-28T00:34:51.144Z,97784.80
2019-04-28T00:37:29.358Z,97780.25
2019-04-28T00:39:58.607Z,97780.17
2019-04-28T00:42:27.455Z,97776.45
2019-04-28T00:44:56.537Z,97783.95
2019-04-28T00:47:25.434Z,97781.94
2019-04-28T00:49:54.388Z,97773.59
2019-04-28T00:52:23.156Z,97777.04
2019-04-28T00:54:52.753Z,97783.17
2019-04-28T00:57:21.682Z,97795.55
2019-04-28T00:59:57.614Z,97794.11
2019-04-28T01:02:26.372Z,97791.81
2019-04-28T01:04:55.186Z,97792.27
2019-04-28T01:07:24.037Z,97782.69
2019-04-28T01:09:52.829Z,97776.71
2019-04-28T01:12:22.325Z,97776.13
2019-04-28T01:14:54.507Z,97775.75
2019-04-28T01:17:35.448Z,97769.55
2019-04-28T01:20:06.306Z,97774.58
2019-04-28T01:22:36.238Z,97775.55
2019-04-28T01:25:05.866Z,97776.86
2019-04-28T01:27:53.833Z,97774.69
2019-04-28T01:30:51.007Z,97781.14
2019-04-28T01:33:37.737Z,97779.38
2019-04-28T01:36:06.502Z,97784.41
2019-04-28T01:38:35.306Z,97780.56
2019-04-28T01:41:04.073Z,97781.80
2019-04-28T01:43:32.978Z,97777.55
2019-04-28T01:46:01.808Z,97781.72
2019-04-28T01:48:31.523Z,97782.70
2019-04-28T01:51:00.470Z,97794.64
2019-04-28T01:53:30.796Z,97804.08
2019-04-28T01:55:59.812Z,97805.77
2019-04-28T01:58:29.698Z,97816.66
2019-04-28T02:00:59.603Z,97827.67
2019-04-28T02:03:30.553Z,97828.05
2019-04-28T02:06:00.143Z,97830.13
2019-04-28T02:08:30.257Z,97830.59
2019-04-28T02:11:01.211Z,97834.48
2019-04-28T02:13:30.058Z,97845.75
2019-04-28T02:16:00.033Z,97840.89
2019-04-28T02:18:29.942Z,97858.52
2019-04-28T02:21:14.021Z,97858.45
2019-04-28T02:23:42.763Z,97859.59
2019-04-28T02:26:11.460Z,97857.48
2019-04-28T02:28:40.780Z,97861.38
2019-04-28T02:31:11.521Z,97859.23
2019-04-28T02:33:40.891Z,97854.87
2019-04-28T02:36:12.118Z,97851.63
2019-04-28T02:38:41.384Z,97853.84
2019-04-28T02:41:11.137Z,97844.19
2019-04-28T02:43:40.977Z,97850.32
2019-04-28T02:46:10.526Z,97845.82
2019-04-28T02:48:40.470Z,97849.27
2019-04-28T02:51:30.644Z,97844.73
2019-04-28T02:54:00.582Z,97849.80
2019-04-28T02:56:30.856Z,97843.75
2019-04-28T02:59:00.970Z,97847.45
2019-04-28T03:01:30.808Z,97847.45
2019-04-28T03:04:00.415Z,97849.99
2019-04-28T03:06:30.673Z,97855.28
2019-04-28T03:09:02.572Z,97856.33
2019-04-28T03:11:31.626Z,97851.12
2019-04-28T03:14:01.079Z,97853.58
2019-04-28T03:16:30.519Z,97859.70
2019-04-28T03:19:01.234Z,97861.92
2019-04-28T03:21:31.306Z,97861.39
2019-04-28T03:24:01.274Z,97865.84
2019-04-28T03:26:50.888Z,97871.36
2019-04-28T03:29:40.376Z,97875.87
2019-04-28T03:32:52.995Z,97877.88
2019-04-28T03:35:14.371Z,97878.80
2019-04-28T03:37:43.133Z,97875.66
2019-04-28T03:40:11.931Z,97871.05
2019-04-28T03:42:41.222Z,97875.13
2019-04-28T03:45:20.918Z,97876.72
2019-04-28T03:47:50.938Z,97868.05
2019-04-28T03:50:20.284Z,97866.02
2019-04-28T03:52:51.222Z,97864.71
2019-04-28T03:55:21.300Z,97855.59
2019-04-28T03:57:51.013Z,97856.30
2019-04-28T04:00:22.001Z,97852.00
2019-04-28T04:02:50.805Z,97857.39
2019-04-28T04:05:20.839Z,97851.55
2019-04-28T04:07:50.670Z,97851.48
2019-04-28T04:10:53.833Z,97855.07
2019-04-28T04:13:32.414Z,97848.63
2019-04-28T04:16:10.608Z,97841.34
2019-04-28T04:18:45.352Z,97842.83
2019-04-28T04:21:14.168Z,97844.80
2019-04-28T04:23:43.332Z,97835.68
2019-04-28T04:26:12.160Z,97844.80
2019-04-28T04:28:41.809Z,97845.28
2019-04-28T04:31:10.780Z,97854.86
2019-04-28T04:33:41.085Z,97856.83
2019-04-28T04:36:11.511Z,97856.38
2019-04-28T04:38:46.085Z,97857.98
2019-04-28T04:41:11.510Z,97855.98
2019-04-28T04:43:41.534Z,97853.77
2019-04-28T04:46:14.796Z,97858.90
2019-04-28T04:48:44.800Z,97858.69
2019-04-28T04:51:14.114Z,97856.78
2019-04-28T04:53:43.342Z,97855.09
2019-04-28T04:56:12.226Z,97855.61
2019-04-28T04:58:41.011Z,97857.30
2019-04-28T05:01:27.679Z,97857.98
2019-04-28T05:03:59.706Z,97855.91
2019-04-28T05:06:34.245Z,97855.20
2019-04-28T05:09:05.249Z,97856.90
2019-04-28T05:11:34.113Z,97846.80
2019-04-28T05:14:02.986Z,97855.98
2019-04-28T05:16:31.797Z,97858.90
2019-04-28T05:19:00.795Z,97858.38
2019-04-28T05:21:33.263Z,97852.78
2019-04-28T05:24:23.028Z,97855.59
2019-04-28T05:26:51.943Z,97854.40
2019-04-28T05:29:26.405Z,97848.24
2019-04-28T05:31:54.753Z,97843.03
2019-04-28T05:34:24.087Z,97851.23
2019-04-28T05:36:52.600Z,97848.16
2019-04-28T05:39:21.483Z,97845.77
2019-04-28T05:41:50.645Z,97846.86
2019-04-28T05:44:20.431Z,97840.94
2019-04-28T05:46:50.549Z,97835.14
2019-04-28T05:49:44.983Z,97825.05
2019-04-28T05:52:41.856Z,97823.86
2019-04-28T05:55:16.218Z,97817.92
2019-04-28T05:57:52.880Z,97815.20
2019-04-28T06:00:39.703Z,97817.09
2019-04-28T06:03:10.942Z,97821.09
2019-04-28T06:05:39.777Z,97815.02
2019-04-28T06:08:20.096Z,97819.63
2019-04-28T06:10:49.878Z,97818.11
2019-04-28T06:13:20.207Z,97822.91
2019-04-28T06:15:49.700Z,97827.75
2019-04-28T06:18:20.494Z,97827.82
2019-04-28T06:20:49.793Z,97827.19
2019-04-28T06:23:18.892Z,97826.64
2019-04-28T06:25:47.792Z,97828.52
2019-04-28T06:28:16.658Z,97837.66
2019-04-28T06:30:45.359Z,97838.64
2019-04-28T06:33:14.236Z,97846.92
2019-04-28T06:35:43.061Z,97849.55
2019-04-28T06:38:12.040Z,97854.97
2019-04-28T06:40:40.857Z,97865.61
2019-04-28T06:43:09.638Z,97874.91
2019-04-28T06:45:38.834Z,97878.19
2019-04-28T06:48:07.969Z,97885.16
2019-04-28T06:50:36.943Z,97877.88
2019-04-28T06:53:07.841Z,97881.83
2019-04-28T06:55:36.646Z,97882.19
2019-04-28T06:58:05.889Z,97886.45
2019-04-28T07:00:34.789Z,97878.67
2019-04-28T07:03:03.718Z,97881.30
2019-04-28T07:05:32.730Z,97879.25
2019-04-28T07:08:01.793Z,97882.45
2019-04-28T07:10:30.959Z,97879.68
2019-04-28T07:13:02.650Z,97883.84
2019-04-28T07:15:31.613Z,97887.47
2019-04-28T07:18:00.590Z,97888.64
2019-04-28T07:20:42.212Z,97897.58
2019-04-28T07:23:11.091Z,97898.48
2019-04-28T07:25:40.161Z,97892.45
2019-04-28T07:28:11.065Z,97891.70
2019-04-28T07:30:41.155Z,97897.06
2019-04-28T07:33:09.977Z,97893.66
2019-04-28T07:35:38.893Z,97896.45
2019-04-28T07:38:07.745Z,97903.18
2019-04-28T07:40:36.591Z,97899.41
2019-04-28T07:43:06.411Z,97897.84
2019-04-28T07:45:35.293Z,97905.38
2019-04-28T07:48:04.111Z,97911.38
2019-04-28T07:50:33.915Z,97904.90
2019-04-28T07:53:12.262Z,97909.12
2019-04-28T07:55:41.235Z,97914.52
2019-04-28T07:58:10.281Z,97910.02
2019-04-28T08:00:39.182Z,97920.86
2019-04-28T08:03:08.099Z,97915.63
2019-04-28T08:05:36.934Z,97922.70
2019-04-28T08:08:05.748Z,97921.70
2019-04-28T08:10:34.526Z,97915.55
2019-04-28T08:13:04.422Z,97917.51
2019-04-28T08:15:33.271Z,97920.70
2019-04-28T08:18:02.056Z,97919.49
2019-04-28T08:20:30.913Z,97928.94
2019-04-28T08:23:01.961Z,97923.52
2019-04-28T08:25:30.811Z,97923.43
2019-04-28T08:27:59.995Z,97926.06
2019-04-28T08:30:28.896Z,97925.86
2019-04-28T08:33:25.809Z,97933.20
2019-04-28T08:35:55.033Z,97926.30
2019-04-28T08:38:27.215Z,97923.02
2019-04-28T08:40:56.026Z,97924.12
2019-04-28T08:43:24.903Z,97919.73
2019-04-28T08:45:54.152Z,97926.25
2019-04-28T08:48:23.148Z,97932.33
2019-04-28T08:50:52.446Z,97927.05
2019-04-28T08:53:21.590Z,97924.41
2019-04-28T08:55:50.666Z,97919.79
2019-04-28T08:58:19.496Z,97914.16
2019-04-28T09:00:48.372Z,97922.55
2019-04-28T09:03:17.232Z,97915.70
2019-04-28T09:05:46.231Z,97912.92
2019-04-28T09:08:15.058Z,97909.66
2019-04-28T09:10:44.088Z,97911.42
2019-04-28T09:13:12.966Z,97907.27
2019-04-28T09:15:41.821Z,97911.77
2019-04-28T09:18:11.081Z,97915.13
2019-04-28T09:20:39.891Z,97907.78
2019-04-28T09:23:08.738Z,97907.95
2019-04-28T09:25:38.620Z,97899.38
2019-04-28T09:28:07.501Z,97911.30
2019-04-28T09:30:36.288Z,97909.49
2019-04-28T09:33:05.158Z,97914.13
2019-04-28T09:35:34.157Z,97915.50
2019-04-28T09:38:02.957Z,97913.16
2019-04-28T09:40:31.803Z,97912.25
2019-04-28T09:43:06.875Z,97909.48
2019-04-28T09:45:39.258Z,97909.02
2019-04-28T09:48:08.150Z,97905.37
2019-04-28T09:50:37.171Z,97906.88
2019-04-28T09:53:06.118Z,97899.18
2019-04-28T09:55:35.414Z,97900.64
2019-04-28T09:58:04.321Z,97900.88
2019-04-28T10:00:33.776Z,97898.56
2019-04-28T10:03:02.632Z,97896.47
2019-04-28T10:05:31.518Z,97896.78
2019-04-28T10:08:04.876Z,97900.03
2019-04-28T10:10:33.736Z,97907.38
2019-04-28T10:13:02.562Z,97903.50
2019-04-28T10:15:31.668Z,97907.07
2019-04-28T10:18:00.469Z,97904.23
2019-04-28T10:20:29.583Z,97903.38
2019-04-28T10:22:58.422Z,97902.44
2019-04-28T10:25:27.229Z,97898.45
2019-04-28T10:27:56.001Z,97902.16
2019-04-28T10:30:24.924Z,97904.77
2019-04-28T10:32:54.129Z,97892.52
2019-04-28T10:35:23.314Z,97888.67
2019-04-28T10:37:52.202Z,97894.56
2019-04-28T10:40:55.901Z,97896.13
2019-04-28T10:43:24.690Z,97894.17
2019-04-28T10:45:55.560Z,97894.79
2019-04-28T10:48:24.461Z,97899.04
2019-04-28T10:50:53.389Z,97896.19
2019-04-28T10:53:22.191Z,97897.41
2019-04-28T10:55:50.896Z,97888.17
2019-04-28T10:58:19.701Z,97890.30
2019-04-28T11:00:48.504Z,97884.67
2019-04-28T11:03:17.436Z,97883.28
2019-04-28T11:05:46.321Z,97881.24
2019-04-28T11:08:50.645Z,97863.73
2019-04-28T11:11:27.217Z,97861.89
2019-04-28T11:13:56.231Z,97855.62
2019-04-28T11:16:30.557Z,97863.23
2019-04-28T11:18:59.644Z,97861.72
2019-04-28T11:21:28.587Z,97863.59
2019-04-28T11:23:59.556Z,97856.62
2019-04-28T11:26:28.578Z,97858.93
2019-04-28T11:28:57.493Z,97852.47
2019-04-28T11:31:26.503Z,97865.63
2019-04-28T11:34:05.493Z,97860.02
2019-04-28T11:36:34.773Z,97862.23
2019-04-28T11:39:06.713Z,97862.08
2019-04-28T11:41:35.647Z,97863.98
2019-04-28T11:44:04.615Z,97859.53
2019-04-28T11:46:37.959Z,97859.91
2019-04-28T11:49:06.895Z,97858.30
2019-04-28T11:51:36.776Z,97857.75
2019-04-28T11:54:06.287Z,97852.92
2019-04-28T11:56:41.750Z,97850.02
2019-04-28T11:59:05.816Z,97850.23
2019-04-28T12:01:34.959Z,97845.25
2019-04-28T12:04:05.554Z,97848.86
2019-04-28T12:06:34.488Z,97847.06
2019-04-28T12:09:19.299Z,97845.61
2019-04-28T12:11:50.448Z,97851.43
2019-04-28T12:14:34.974Z,97851.35
2019-04-28T12:17:16.689Z,97853.39
2019-04-28T12:19:49.177Z,97848.94
2019-04-28T12:22:17.970Z,97848.50
2019-04-28T12:24:46.832Z,97848.65
2019-04-28T12:27:15.964Z,97852.42
2019-04-28T12:29:44.837Z,97848.69
2019-04-28T12:32:14.778Z,97859.67
2019-04-28T12:34:43.515Z,97855.73
2019-04-28T12:37:12.321Z,97866.53
2019-04-28T12:39:41.145Z,97859.59
2019-04-28T12:42:10.029Z,97866.97
2019-04-28T12:44:39.033Z,97857.51
2019-04-28T12:47:08.856Z,97858.31
2019-04-28T12:49:47.559Z,97855.89
2019-04-28T12:52:16.520Z,97854.95
2019-04-28T12:54:45.434Z,97849.23
2019-04-28T12:57:15.778Z,97848.28
2019-04-28T12:59:49.631Z,97846.91
2019-04-28T13:02:37.717Z,97846.06
2019-04-28T13:05:11.337Z,97846.57
2019-04-28T13:07:40.474Z,97841.05
2019-04-28T13:10:10.403Z,97831.13
2019-04-28T13:12:39.214Z,97835.20
2019-04-28T13:15:08.008Z,97830.34
2019-04-28T13:17:36.837Z,97820.98
2019-04-28T13:20:05.747Z,97821.14
2019-04-28T13:22:34.722Z,97817.79
2019-04-28T13:25:03.525Z,97823.07
2019-04-28T13:27:32.348Z,97816.41
2019-04-28T13:30:01.203Z,97808.52
2019-04-28T13:32:29.940Z,97806.22
2019-04-28T13:34:58.841Z,97803.54
2019-04-28T13:37:27.697Z,97800.55
2019-04-28T13:40:00.343Z,97799.27
2019-04-28T13:42:30.238Z,97792.48
2019-04-28T13:45:03.292Z,97793.20
2019-04-28T13:47:32.410Z,97788.39
2019-04-28T13:50:13.572Z,97789.73
2019-04-28T13:52:42.498Z,97789.08
2019-04-28T13:55:33.219Z,97784.84
2019-04-28T13:58:03.012Z,97783.89
2019-04-28T14:00:58.219Z,97785.78
2019-04-28T14:03:45.980Z,97780.84
2019-04-28T14:06:27.550Z,97779.00
2019-04-28T14:08:46.895Z,97779.41
2019-04-28T14:11:15.806Z,97775.62
2019-04-28T14:13:44.623Z,97772.32
2019-04-28T14:16:13.446Z,97771.63
2019-04-28T14:18:42.231Z,97764.05
2019-04-28T14:21:11.127Z,97763.31
2019-04-28T14:23:40.080Z,97761.88
2019-04-28T14:26:08.975Z,97756.12
2019-04-28T14:28:38.868Z,97758.23
2019-04-28T14:31:07.685Z,97754.66
2019-04-28T14:33:36.575Z,97755.01
2019-04-28T14:36:05.489Z,97754.09
2019-04-28T14:38:34.301Z,97758.17
2019-04-28T14:41:03.227Z,97761.98
2019-04-28T14:43:33.213Z,97756.50
2019-04-28T14:46:02.127Z,97754.00
2019-04-28T14:48:30.943Z,97752.80
2019-04-28T14:51:00.064Z,97748.85
2019-04-28T14:53:29.091Z,97751.00
2019-04-28T14:55:58.038Z,97751.33
2019-04-28T14:58:26.927Z,97751.22
2019-04-28T15:01:00.761Z,97749.03
2019-04-28T15:03:30.938Z,97752.50
2019-04-28T15:06:12.104Z,97756.70
2019-04-28T15:09:08.919Z,97759.33
2019-04-28T15:11:47.325Z,97756.95
2019-04-28T15:14:16.563Z,97759.22
2019-04-28T15:16:45.417Z,97762.91
2019-04-28T15:19:14.513Z,97767.32
2019-04-28T15:21:43.474Z,97767.27
2019-04-28T15:24:12.426Z,97764.90
2019-04-28T15:26:42.394Z,97769.33
2019-04-28T15:29:11.336Z,97770.27
2019-04-28T15:31:40.494Z,97766.00
2019-04-28T15:34:09.411Z,97771.48
2019-04-28T15:36:39.351Z,97770.89
2019-04-28T15:39:10.890Z,97765.63
2019-04-28T15:41:39.822Z,97764.25
2019-04-28T15:44:08.759Z,97762.60
2019-04-28T15:46:37.578Z,97770.43
2019-04-28T15:49:06.881Z,97764.30
2019-04-28T15:51:35.789Z,97771.12
2019-04-28T15:54:04.775Z,97777.79
2019-04-28T15:56:42.460Z,97785.50
2019-04-28T15:59:11.594Z,97780.17
2019-04-28T16:01:41.596Z,97777.95
2019-04-28T16:04:10.651Z,97778.52
2019-04-28T16:06:39.591Z,97775.25
2019-04-28T16:09:12.907Z,97782.37
2019-04-28T16:11:43.349Z,97783.22
2019-04-28T16:14:12.635Z,97781.80
2019-04-28T16:16:42.553Z,97783.12
2019-04-28T16:19:11.297Z,97771.52
2019-04-28T16:21:40.248Z,97770.95
2019-04-28T16:24:09.471Z,97768.33
2019-04-28T16:26:40.445Z,97765.53
2019-04-28T16:29:09.249Z,97772.42
2019-04-28T16:31:38.075Z,97766.91
2019-04-28T16:34:06.938Z,97775.55
2019-04-28T16:36:35.738Z,97775.18
2019-04-28T16:39:06.629Z,97770.34
2019-04-28T16:41:35.697Z,97777.92
2019-04-28T16:44:04.708Z,97781.13
2019-04-28T16:46:33.686Z,97778.92
2019-04-28T16:49:02.450Z,97782.29
2019-04-28T16:51:31.323Z,97776.06
2019-04-28T16:54:00.231Z,97782.34
2019-04-28T16:56:44.683Z,97788.95
2019-04-28T16:59:34.732Z,97786.08
2019-04-28T17:02:38.038Z,97787.39
2019-04-28T17:05:09.147Z,97789.41
2019-04-28T17:07:46.056Z,97795.50
2019-04-28T17:10:11.751Z,97794.98
2019-04-28T17:12:40.552Z,97794.46
2019-04-28T17:15:10.436Z,97794.19
2019-04-28T17:17:39.436Z,97792.41
2019-04-28T17:20:08.159Z,97787.16
2019-04-28T17:22:36.876Z,97794.88
2019-04-28T17:25:06.104Z,97787.06
2019-04-28T17:27:35.035Z,97792.86
2019-04-28T17:30:03.977Z,97792.98
2019-04-28T17:32:33.070Z,97783.17
2019-04-28T17:35:02.234Z,97791.23
2019-04-28T17:37:32.066Z,97789.11
2019-04-28T17:40:01.251Z,97793.61
2019-04-28T17:42:30.086Z,97787.22
2019-04-28T17:44:59.457Z,97787.53
2019-04-28T17:47:28.267Z,97786.88
2019-04-28T17:49:57.172Z,97792.05
2019-04-28T17:52:25.942Z,97793.75
2019-04-28T17:54:54.745Z,97796.84
2019-04-28T17:57:23.698Z,97793.00
2019-04-28T17:59:54.530Z,97794.15
2019-04-28T18:02:42.691Z,97798.45
2019-04-28T18:05:39.846Z,97804.06
2019-04-28T18:08:20.918Z,97804.53
2019-04-28T18:10:43.466Z,97810.25
2019-04-28T18:13:13.403Z,97804.48
2019-04-28T18:16:13.369Z,97810.48
2019-04-28T18:18:45.179Z,97813.49
2019-04-28T18:21:14.121Z,97823.22
2019-04-28T18:23:43.048Z,97822.67
2019-04-28T18:26:12.979Z,97825.12
2019-04-28T18:28:42.648Z,97832.30
2019-04-28T18:31:42.666Z,97842.30
2019-04-28T18:45:20.602Z,97862.66
2019-04-28T18:50:26.432Z,97874.41
2019-04-28T18:52:56.901Z,97877.00
2019-04-28T18:55:28.189Z,97875.76
2019-04-28T18:57:57.796Z,97885.92
2019-04-28T19:00:28.457Z,97881.72
2019-04-28T19:03:00.021Z,97882.07
2019-04-28T19:05:36.282Z,97885.84
2019-04-28T19:08:18.739Z,97892.27
2019-04-28T19:11:12.390Z,97892.89
2019-04-28T19:13:46.322Z,97891.63
2019-04-28T19:16:52.749Z,97898.99
2019-04-28T19:19:23.589Z,97898.38
2019-04-28T19:21:56.393Z,97889.39
2019-04-28T19:24:26.129Z,97901.62
2019-04-28T19:26:55.099Z,97906.45
2019-04-28T19:29:23.975Z,97909.09
2019-04-28T19:31:53.660Z,97908.04
2019-04-28T19:34:22.880Z,97915.17
2019-04-28T19:36:51.923Z,97912.44
2019-04-28T19:39:20.885Z,97915.22
2019-04-28T19:41:51.105Z,97924.50
2019-04-28T19:44:20.190Z,97922.53
2019-04-28T19:46:49.106Z,97927.89
2019-04-28T19:49:20.978Z,97929.52
2019-04-28T19:51:51.902Z,97928.85
2019-04-28T19:54:24.773Z,97932.55
2019-04-28T19:57:31.574Z,97934.64
2019-04-28T20:00:35.306Z,97934.95
2019-04-28T20:03:06.827Z,97933.66
2019-04-28T20:05:35.831Z,97939.56
2019-04-28T20:08:06.721Z,97937.66
2019-04-28T20:10:35.629Z,97945.34
2019-04-28T20:13:05.505Z,97943.04
2019-04-28T20:15:34.532Z,97943.64
2019-04-28T20:18:03.685Z,97947.72
2019-04-28T20:20:32.732Z,97946.94
2019-04-28T20:23:01.743Z,97947.98
2019-04-28T20:25:31.202Z,97952.81
2019-04-28T20:27:59.985Z,97954.25
2019-04-28T20:30:29.012Z,97953.05
2019-04-28T20:33:06.942Z,97955.27
2019-04-28T20:35:32.168Z,97966.20
2019-04-28T20:38:23.911Z,97958.63
2019-04-28T20:41:08.360Z,97953.55
2019-04-28T20:43:37.439Z,97956.46
2019-04-28T20:46:08.264Z,97959.16
2019-04-28T20:48:39.474Z,97955.72
2019-04-28T20:51:08.416Z,97956.06
2019-04-28T20:53:37.422Z,97958.22
2019-04-28T20:56:06.266Z,97946.05
2019-04-28T20:58:35.176Z,97947.67
2019-04-28T21:01:04.370Z,97948.34
2019-04-28T21:03:35.238Z,97948.34
2019-04-28T21:06:04.041Z,97948.06
2019-04-28T21:08:34.027Z,97951.96
2019-04-28T21:11:02.766Z,97957.56
2019-04-28T21:13:31.574Z,97956.78
2019-04-28T21:16:00.486Z,97957.30
2019-04-28T21:18:29.300Z,97959.06
2019-04-28T21:21:02.507Z,97956.17
2019-04-28T21:23:31.444Z,97952.78
2019-04-28T21:26:00.849Z,97957.67
2019-04-28T21:28:29.717Z,97953.22
2019-04-28T21:30:59.654Z,97953.77
2019-04-28T21:33:29.563Z,97956.67
2019-04-28T21:35:59.525Z,97959.11
2019-04-28T21:38:28.698Z,97960.25
2019-04-28T21:41:01.316Z,97957.39
2019-04-28T21:43:45.991Z,97955.02
2019-04-28T21:46:38.809Z,97956.08
2019-04-28T21:49:25.299Z,97956.21
2019-04-28T21:51:54.745Z,97952.14
2019-04-28T21:54:23.503Z,97950.22
2019-04-28T21:56:52.319Z,97947.84
2019-04-28T21:59:21.103Z,97950.89
2019-04-28T22:01:49.999Z,97951.74
2019-04-28T22:04:18.781Z,97955.55
2019-04-28T22:06:47.644Z,97954.97
2019-04-28T22:09:16.853Z,97960.92
2019-04-28T22:11:45.779Z,97950.52
2019-04-28T22:14:14.690Z,97959.49
2019-04-28T22:16:43.571Z,97963.39
2019-04-28T22:19:12.363Z,97958.58
2019-04-28T22:21:41.262Z,97959.16
2019-04-28T22:24:16.938Z,97955.88
2019-04-28T22:26:47.316Z,97949.14
2019-04-28T22:29:16.196Z,97948.36
2019-04-28T22:31:45.479Z,97941.08
2019-04-28T22:34:14.915Z,97947.91
2019-04-28T22:36:45.369Z,97944.91
2019-04-28T22:39:15.617Z,97942.37
2019-04-28T22:41:44.516Z,97937.17
2019-04-28T22:44:13.481Z,97935.87
2019-04-28T22:46:42.662Z,97936.27
2019-04-28T22:49:11.547Z,97937.63
2019-04-28T22:51:40.434Z,97936.78
2019-04-28T22:54:28.241Z,97943.67
2019-04-28T22:57:05.763Z,97941.98
2019-04-28T22:59:38.793Z,97934.47
2019-04-28T23:02:18.707Z,97944.05
2019-04-28T23:04:55.699Z,97951.13
2019-04-28T23:07:24.764Z,97943.84
2019-04-28T23:09:53.699Z,97944.85
2019-04-28T23:12:22.607Z,97950.11
2019-04-28T23:14:52.298Z,97943.89
2019-04-28T23:17:21.639Z,97951.84
2019-04-28T23:19:50.553Z,97948.59
2019-04-28T23:22:25.702Z,97945.63
2019-04-28T23:24:57.357Z,97945.75
2019-04-28T23:27:26.163Z,97944.06
2019-04-28T23:29:55.056Z,97944.91
2019-04-28T23:32:23.844Z,97952.64
2019-04-28T23:34:52.648Z,97950.83
2019-04-28T23:37:21.452Z,97949.77
2019-04-28T23:39:50.305Z,97949.61
2019-04-28T23:42:27.742Z,97945.98
2019-04-28T23:44:56.602Z,97945.20
2019-04-28T23:47:25.563Z,97946.73
2019-04-28T23:49:54.954Z,97941.53
2019-04-28T23:52:33.137Z,97942.47
2019-04-28T23:55:03.598Z,97948.70
2019-04-28T23:57:32.465Z,97953.05
